Myrtle Beach, SC (29575)

7:42 AM EDT on April 18, 2015 (GMT -0400)
Southwood | | Change Station
CLOSE
Current Station
Personal Weather Station
Location: Myrtle Beach, SC
Elevation: 25 ft
Nearby Weather Stations

Elev 25 ft 33.64 °N, 78.98 °W | Updated 8 seconds ago

Overcast
Overcast
67.6 °F
Feels Like 67.6 °F
N
0.0
Wind Variable Wind from WNW
Gusts 0.0 mph

Today
High -- | Low -- °F
--% Chance of Precip.
Yesterday
High -- | Low -- °F
Precip. -- in
6:42 AM 7:49 PM
Waning Crescent, 0% visible
Pressure 30.01 in
Visibility 4.0 miles
Clouds Mostly Cloudy 800 ft
Overcast 1900 ft
Dew Point 68 °F
Humidity 99%
Rainfall 0.07 in
Snow Depth Not available.
UV 0.0 out of 12
Pollen 7.30 out of 12
Air Quality Not available.
Flu Activity Local Activity
SPECI KMYR 181130Z 36004KT 4SM RA BR BKN008 OVC019 19/18 A3001

More Conditions Fewer Conditions

Pressure 30.01 in
Visibility 4.0 miles
Clouds Mostly Cloudy 800 ft
Overcast 1900 ft
Dew Point 68 °F
Humidity 99%
Rainfall 0.07 in
Snow Depth Not available.
UV 0.0 out of 12
Pollen 7.30 out of 12
Air Quality Not available.
Flu Activity Local Activity
SPECI KMYR 181130Z 36004KT 4SM RA BR BKN008 OVC019 19/18 A3001

More Conditions Fewer Conditions

10-Day Weather Forecast

Almanac

Astronomy

Apr. 18, 2015 Rise Set
Actual Time
Civil Twilight
Nautical Twilight
Astronomical Twilight
Moon
Length of Visible Light
Length of Day
Tomorrow will be .
, % of the Moon is Illuminated

Today's Extremes

State Highs State Lows

Community

WunderPhotos

Upload Photos

1,814,371 photos uploaded!

WunderBlogs® & News

Nearby

Air Quality

  Air Quality AQ Index Pollutant
Not available.

Snow Depth

Station Depth Elevation

Earthquake Activity

City Distance Mag. Time & Date
Minimum magnitude displayed is 2.5.

Coastal Water Temperatures

Place Temperature

Stations

Nearby Weather Stations

Station Location Temp. Windchill Dew Point Humidity Wind Precip. Elev Updated Type